Time;durP1;ratioP1;P1;durP2;ratioP2;P2;SDS_P1;SDS_P2;PMS_P1;PMS_P2;Temp;Humidity;BMP_temperature;BMP_pressure;BME280_temperature;BME280_humidity;BME280_pressure;Samples;Min_cycle;Max_cycle;Signal;HPM_P1;HPM_P2
2022/07/31 00:00:31;;;;;;;2.78;0.55;;;19.30;99.90;;;;;;5033460;28;20048;-73
2022/07/31 00:02:57;;;;;;;1.10;0.50;;;19.20;99.90;;;;;;5032177;28;20489;-73
2022/07/31 00:05:24;;;;;;;3.25;0.40;;;19.20;99.90;;;;;;5033629;28;20091;-73
2022/07/31 00:07:51;;;;;;;0.55;0.25;;;19.10;99.90;;;;;;5033408;28;20433;-73
2022/07/31 00:10:17;;;;;;;2.83;0.50;;;19.10;99.90;;;;;;5033218;28;20080;-73
2022/07/31 00:12:43;;;;;;;2.65;0.20;;;19.20;99.90;;;;;;5033178;28;20456;-73
2022/07/31 00:15:09;;;;;;;1.77;0.10;;;19.10;99.90;;;;;;5032010;28;20025;-73
2022/07/31 00:17:36;;;;;;;2.08;0.30;;;19.10;99.90;;;;;;5033225;28;20025;-73
2022/07/31 00:20:03;;;;;;;3.25;0.38;;;19.10;99.90;;;;;;5033203;28;20533;-73
2022/07/31 00:22:29;;;;;;;3.45;0.73;;;19.10;99.90;;;;;;5033295;28;20507;-73
2022/07/31 00:24:54;;;;;;;3.25;0.57;;;19.00;99.90;;;;;;5033175;28;20032;-72
2022/07/31 00:27:20;;;;;;;0.80;0.20;;;19.10;99.90;;;;;;5033144;28;20026;-73
2022/07/31 00:29:46;;;;;;;2.97;0.40;;;19.10;99.90;;;;;;5033231;28;20053;-73
2022/07/31 00:32:11;;;;;;;2.35;0.17;;;19.10;99.90;;;;;;5033404;28;20414;-73
2022/07/31 00:34:37;;;;;;;2.25;0.50;;;19.10;99.90;;;;;;5033345;28;20077;-73
2022/07/31 00:37:03;;;;;;;0.60;0.17;;;19.20;99.90;;;;;;5031804;28;20022;-72
2022/07/31 00:39:29;;;;;;;4.00;0.30;;;19.10;99.90;;;;;;5033096;28;20105;-72
2022/07/31 00:41:55;;;;;;;2.63;0.30;;;19.10;99.90;;;;;;5033552;28;20128;-72
2022/07/31 00:44:21;;;;;;;0.60;0.30;;;19.10;99.90;;;;;;5033601;28;20494;-72
2022/07/31 00:46:47;;;;;;;0.95;0.15;;;19.10;99.90;;;;;;5033097;28;20033;-72
2022/07/31 00:49:12;;;;;;;0.70;0.30;;;19.10;99.90;;;;;;5032867;28;20558;-72
2022/07/31 00:51:39;;;;;;;2.97;0.30;;;19.10;99.90;;;;;;5032957;28;20030;-72
2022/07/31 00:54:07;;;;;;;1.20;0.20;;;19.10;99.90;;;;;;5033224;28;20482;-72
2022/07/31 00:56:32;;;;;;;1.80;0.25;;;19.10;99.90;;;;;;5031756;28;20018;-73
2022/07/31 00:58:58;;;;;;;1.10;0.22;;;19.10;99.90;;;;;;5032892;28;20478;-73
2022/07/31 01:01:24;;;;;;;1.10;0.25;;;19.10;99.90;;;;;;5031552;28;20479;-74
2022/07/31 01:03:50;;;;;;;0.20;0.10;;;19.10;99.90;;;;;;5033074;28;20018;-72
2022/07/31 01:06:15;;;;;;;0.47;0.00;;;19.10;99.90;;;;;;5033146;28;20471;-72
2022/07/31 01:08:41;;;;;;;2.10;0.20;;;19.10;99.90;;;;;;5033040;28;20487;-72
2022/07/31 01:11:29;;;;;;;1.70;0.52;;;19.00;99.90;;;;;;5031309;28;20553;-72
2022/07/31 01:13:58;;;;;;;3.53;0.65;;;19.00;99.90;;;;;;5031567;28;20548;-72
2022/07/31 01:16:27;;;;;;;2.60;0.35;;;19.00;99.90;;;;;;5031490;28;20391;-72
2022/07/31 01:18:55;;;;;;;1.85;0.30;;;19.00;99.90;;;;;;5034047;28;20017;-72
2022/07/31 01:21:28;;;;;;;2.75;0.35;;;19.00;99.90;;;;;;5036546;28;20028;-72
2022/07/31 01:24:04;;;;;;;0.98;0.30;;;18.90;99.90;;;;;;5035123;28;20014;-72
2022/07/31 01:26:47;;;;;;;1.10;0.35;;;18.90;99.90;;;;;;5036519;28;20410;-72
2022/07/31 01:29:21;;;;;;;2.05;0.40;;;18.90;99.90;;;;;;5034984;28;20483;-72
2022/07/31 01:31:52;;;;;;;2.65;0.50;;;18.80;99.90;;;;;;5036129;28;20018;-72
2022/07/31 01:34:56;;;;;;;0.93;0.63;;;18.80;99.90;;;;;;5034932;28;20467;-73
2022/07/31 01:37:29;;;;;;;1.85;0.30;;;18.80;99.90;;;;;;4956074;29;20027;-72
2022/07/31 01:40:08;;;;;;;1.77;0.20;;;18.70;99.90;;;;;;5023071;28;20033;-72
2022/07/31 01:42:36;;;;;;;3.42;0.63;;;18.80;99.90;;;;;;5036089;28;20029;-72
2022/07/31 01:45:05;;;;;;;1.27;0.40;;;18.70;99.90;;;;;;5034670;28;20080;-72
2022/07/31 01:47:33;;;;;;;2.95;0.50;;;18.70;99.90;;;;;;5036130;28;20347;-72
2022/07/31 01:50:00;;;;;;;4.53;0.32;;;18.70;99.90;;;;;;5035948;28;20482;-72
2022/07/31 01:52:28;;;;;;;1.67;0.38;;;18.70;99.90;;;;;;5034552;28;20473;-72
2022/07/31 01:54:55;;;;;;;4.88;0.85;;;18.70;99.90;;;;;;5036303;28;20024;-72
2022/07/31 01:57:23;;;;;;;3.30;1.05;;;18.70;99.90;;;;;;5035732;28;20493;-72
2022/07/31 01:59:52;;;;;;;4.93;1.02;;;18.70;99.90;;;;;;5034266;28;20032;-72
2022/07/31 02:02:19;;;;;;;5.50;0.68;;;18.70;99.90;;;;;;5035596;28;20021;-73
2022/07/31 02:04:46;;;;;;;2.22;0.63;;;18.70;99.90;;;;;;5036099;28;20529;-73
2022/07/31 02:07:13;;;;;;;4.38;0.98;;;18.70;99.90;;;;;;5036029;28;20028;-73
2022/07/31 02:09:42;;;;;;;5.57;0.77;;;18.70;99.90;;;;;;5035971;28;20096;-73
2022/07/31 02:12:10;;;;;;;3.60;0.50;;;18.80;99.90;;;;;;5035331;28;20517;-73
2022/07/31 02:14:37;;;;;;;2.72;0.50;;;18.80;99.90;;;;;;5035388;28;20033;-73
2022/07/31 02:17:03;;;;;;;1.35;0.50;;;18.80;99.90;;;;;;5035348;28;20036;-72
2022/07/31 02:19:28;;;;;;;5.90;1.02;;;18.80;99.90;;;;;;5035391;28;20021;-72
2022/07/31 02:21:54;;;;;;;1.92;0.80;;;18.80;99.90;;;;;;5033989;28;20017;-73
2022/07/31 02:24:21;;;;;;;1.23;0.38;;;18.80;99.90;;;;;;5035496;28;20025;-73
2022/07/31 02:26:47;;;;;;;2.70;0.20;;;18.80;99.90;;;;;;5035176;28;20060;-72
2022/07/31 02:29:17;;;;;;;4.72;0.68;;;18.80;99.90;;;;;;5034743;28;20049;-72
2022/07/31 02:31:44;;;;;;;2.15;0.32;;;18.80;99.90;;;;;;5034990;28;20093;-73
2022/07/31 02:34:12;;;;;;;1.88;0.22;;;18.80;99.90;;;;;;5035567;28;20479;-73
2022/07/31 02:36:38;;;;;;;1.15;0.30;;;18.80;99.90;;;;;;5033718;28;20021;-73
2022/07/31 02:39:04;;;;;;;2.40;0.38;;;18.70;99.90;;;;;;5033612;28;20026;-73
2022/07/31 02:41:30;;;;;;;3.33;0.40;;;18.80;99.90;;;;;;5035378;28;20422;-73
2022/07/31 02:43:57;;;;;;;2.95;0.50;;;18.80;99.90;;;;;;5035412;28;20173;-73
2022/07/31 02:46:22;;;;;;;5.68;0.20;;;18.80;99.90;;;;;;5035054;28;20398;-73
2022/07/31 02:48:49;;;;;;;2.30;0.40;;;18.80;99.90;;;;;;5034671;28;20028;-73
2022/07/31 02:51:15;;;;;;;2.50;0.47;;;18.80;99.90;;;;;;5034825;28;20494;-73
2022/07/31 02:53:40;;;;;;;3.40;0.50;;;18.70;99.90;;;;;;5034718;28;20036;-73
2022/07/31 02:56:08;;;;;;;2.70;0.32;;;18.70;99.90;;;;;;5035142;28;20459;-73
2022/07/31 02:58:40;;;;;;;4.72;0.82;;;18.70;99.90;;;;;;5034749;28;20029;-73
2022/07/31 03:01:07;;;;;;;3.25;0.60;;;18.80;99.90;;;;;;5034753;28;20029;-72
2022/07/31 03:03:33;;;;;;;4.00;0.40;;;18.70;99.90;;;;;;5034733;28;20026;-72
2022/07/31 03:05:58;;;;;;;4.57;0.30;;;18.70;99.90;;;;;;5034497;28;20110;-72
2022/07/31 03:08:25;;;;;;;2.72;0.45;;;18.80;99.90;;;;;;5033144;28;20037;-72
2022/07/31 03:10:51;;;;;;;2.58;0.82;;;18.80;99.90;;;;;;5034115;28;20067;-73
2022/07/31 03:13:18;;;;;;;2.45;0.40;;;18.80;99.90;;;;;;5033132;28;20031;-72
2022/07/31 03:15:45;;;;;;;1.58;0.10;;;18.80;99.90;;;;;;5034251;28;20017;-72
2022/07/31 03:18:13;;;;;;;1.00;0.30;;;18.80;99.90;;;;;;5034420;28;20470;-72
2022/07/31 03:20:41;;;;;;;3.25;0.63;;;18.80;99.90;;;;;;5034120;28;20040;-72
2022/07/31 03:23:08;;;;;;;5.00;0.82;;;18.80;99.90;;;;;;5034096;28;20026;-72
2022/07/31 03:25:34;;;;;;;3.45;0.43;;;18.90;99.90;;;;;;5033988;28;20391;-72
2022/07/31 03:28:00;;;;;;;2.33;0.40;;;18.80;99.90;;;;;;5033922;28;20029;-72
2022/07/31 03:30:25;;;;;;;2.17;0.82;;;18.80;99.90;;;;;;5033847;28;20037;-72
2022/07/31 03:32:52;;;;;;;2.83;0.50;;;18.70;99.90;;;;;;5034019;28;20018;-72
2022/07/31 03:35:18;;;;;;;4.18;1.35;;;18.80;99.90;;;;;;5033828;28;20059;-72
2022/07/31 03:37:44;;;;;;;4.97;0.98;;;18.80;99.90;;;;;;5033820;28;20475;-72
2022/07/31 03:40:10;;;;;;;3.55;1.20;;;18.80;99.90;;;;;;5033106;28;20026;-72
2022/07/31 03:42:35;;;;;;;2.42;0.50;;;18.90;99.90;;;;;;5034209;28;20033;-72
2022/07/31 03:45:04;;;;;;;2.35;0.60;;;18.90;99.90;;;;;;5034232;28;20029;-73
2022/07/31 03:47:30;;;;;;;;;;;19.00;99.90;;;;;;5034595;28;20116;-72
2022/07/31 03:49:56;;;;;;;7.47;0.77;;;19.10;99.90;;;;;;5033521;28;20055;-72
2022/07/31 03:52:22;;;;;;;2.38;0.30;;;19.10;99.90;;;;;;5033874;28;20360;-72
2022/07/31 03:54:48;;;;;;;3.88;0.50;;;19.10;99.90;;;;;;5032333;28;20032;-72
2022/07/31 03:57:15;;;;;;;2.25;0.63;;;19.10;99.90;;;;;;5033739;28;20076;-72
2022/07/31 03:59:42;;;;;;;2.58;0.45;;;19.10;99.90;;;;;;5033484;28;20036;-72
2022/07/31 04:02:09;;;;;;;4.85;0.38;;;19.10;99.90;;;;;;5033601;28;20025;-72
2022/07/31 04:04:36;;;;;;;6.20;0.77;;;19.10;99.90;;;;;;5033398;28;20035;-72
2022/07/31 04:07:03;;;;;;;0.98;0.82;;;19.10;99.90;;;;;;5033399;28;20036;-72
2022/07/31 04:09:28;;;;;;;3.08;0.75;;;19.10;99.90;;;;;;5033578;28;20033;-72
2022/07/31 04:11:54;;;;;;;3.08;0.90;;;19.00;99.90;;;;;;5033200;28;20410;-72
2022/07/31 04:14:20;;;;;;;4.32;1.15;;;19.00;99.90;;;;;;5033340;28;20030;-72
2022/07/31 04:16:45;;;;;;;3.67;1.10;;;19.00;99.90;;;;;;5033374;28;20079;-72
2022/07/31 04:19:11;;;;;;;3.53;1.02;;;19.00;99.90;;;;;;5033498;28;20057;-72
2022/07/31 04:21:36;;;;;;;4.57;2.13;;;19.00;99.90;;;;;;5031893;28;20021;-72
2022/07/31 04:24:02;;;;;;;2.67;1.13;;;19.00;99.90;;;;;;5033250;28;20493;-72
2022/07/31 04:26:29;;;;;;;3.30;0.88;;;19.00;99.90;;;;;;5033438;28;20060;-72
2022/07/31 04:28:55;;;;;;;3.92;1.30;;;19.00;99.90;;;;;;5031944;28;20024;-72
2022/07/31 04:31:20;;;;;;;1.67;1.20;;;19.00;99.90;;;;;;5032948;28;20025;-72
2022/07/31 04:33:47;;;;;;;2.95;1.45;;;19.00;99.90;;;;;;5033124;28;20088;-72
2022/07/31 04:36:13;;;;;;;5.80;1.83;;;19.10;99.90;;;;;;5033380;28;20022;-72
2022/07/31 04:38:39;;;;;;;5.65;0.93;;;19.10;99.90;;;;;;5033810;28;20029;-72
2022/07/31 04:41:05;;;;;;;2.65;1.00;;;19.10;99.90;;;;;;5033291;28;20379;-72
2022/07/31 04:43:30;;;;;;;3.33;1.52;;;18.90;99.90;;;;;;5033098;28;20030;-72
2022/07/31 04:45:56;;;;;;;4.95;0.93;;;19.10;99.90;;;;;;5033024;28;20482;-72
2022/07/31 04:48:22;;;;;;;4.47;1.25;;;19.10;99.90;;;;;;5033054;28;20438;-72
2022/07/31 04:50:47;;;;;;;5.57;0.68;;;19.10;99.90;;;;;;5033413;28;20025;-72
2022/07/31 04:53:13;;;;;;;3.83;0.70;;;19.10;99.90;;;;;;5036436;28;20084;-72
2022/07/31 04:55:38;;;;;;;1.30;0.98;;;19.30;99.90;;;;;;5037246;28;20021;-73
2022/07/31 04:58:04;;;;;;;1.38;0.95;;;19.30;99.90;;;;;;5037202;28;20479;-73
2022/07/31 05:00:30;;;;;;;2.42;0.73;;;19.30;99.90;;;;;;5037122;28;20052;-73
2022/07/31 05:02:55;;;;;;;2.88;1.52;;;19.20;99.90;;;;;;5036729;28;20097;-73
2022/07/31 05:05:21;;;;;;;3.35;0.90;;;19.30;99.90;;;;;;5036802;28;20116;-73
2022/07/31 05:07:46;;;;;;;2.97;1.70;;;19.40;99.90;;;;;;5035447;28;20068;-73
2022/07/31 05:11:21;;;;;;;2.28;1.10;;;19.50;99.90;;;;;;5037142;28;20425;-73
2022/07/31 05:12:58;;;;;;;4.00;1.92;;;19.50;99.90;;;;;;5036358;28;20099;-73
2022/07/31 05:15:23;;;;;;;2.58;1.48;;;19.40;99.90;;;;;;5036690;28;20029;-73
2022/07/31 05:17:49;;;;;;;3.53;1.38;;;19.40;99.90;;;;;;5036415;28;20034;-73
2022/07/31 05:20:15;;;;;;;4.38;1.02;;;19.40;99.90;;;;;;5036650;28;20425;-73
2022/07/31 05:22:40;;;;;;;5.57;1.63;;;19.40;99.90;;;;;;5036692;28;20036;-73
2022/07/31 05:25:06;;;;;;;4.30;1.40;;;19.50;99.90;;;;;;5036607;28;20064;-73
2022/07/31 05:27:32;;;;;;;3.35;1.40;;;19.50;99.90;;;;;;5035175;28;20552;-73
2022/07/31 05:29:57;;;;;;;5.75;2.08;;;19.50;99.90;;;;;;5036107;28;20120;-74
2022/07/31 05:32:23;;;;;;;3.70;1.90;;;19.50;99.90;;;;;;5034924;28;20017;-73
2022/07/31 05:34:48;;;;;;;4.15;2.08;;;19.60;99.90;;;;;;5035011;28;20048;-73
2022/07/31 05:37:14;;;;;;;6.07;1.83;;;19.60;99.90;;;;;;5036187;28;20017;-73
2022/07/31 05:39:39;;;;;;;6.55;2.60;;;19.40;99.90;;;;;;5036771;28;20022;-73
2022/07/31 05:42:06;;;;;;;3.40;1.85;;;19.60;99.90;;;;;;5036484;28;20033;-74
2022/07/31 05:44:32;;;;;;;5.25;2.13;;;19.60;99.90;;;;;;5036157;28;20018;-74
2022/07/31 05:46:58;;;;;;;4.97;2.28;;;20.30;99.90;;;;;;5036004;28;20024;-73
2022/07/31 05:49:25;;;;;;;6.25;2.60;;;19.60;99.90;;;;;;5035827;28;20024;-73
2022/07/31 05:51:52;;;;;;;4.53;2.42;;;19.60;99.90;;;;;;5035744;28;20394;-73
2022/07/31 05:54:18;;;;;;;5.63;2.63;;;19.50;99.90;;;;;;5036346;28;20018;-73
2022/07/31 05:56:44;;;;;;;6.75;3.10;;;19.50;99.90;;;;;;5036036;28;20021;-73
2022/07/31 05:59:09;;;;;;;5.47;2.75;;;19.50;99.90;;;;;;5036073;28;20413;-73
2022/07/31 06:01:36;;;;;;;5.72;2.83;;;19.50;99.90;;;;;;5035694;28;20026;-73
2022/07/31 06:04:01;;;;;;;7.20;2.97;;;19.70;99.90;;;;;;5033811;28;20022;-73
2022/07/31 06:06:27;;;;;;;9.77;3.42;;;19.60;99.90;;;;;;5045239;28;20496;-73
2022/07/31 06:08:53;;;;;;;8.93;4.03;;;19.60;99.90;;;;;;5052433;28;20033;-73
2022/07/31 06:11:19;;;;;;;5.32;3.28;;;19.60;99.90;;;;;;5040220;28;20025;-73
2022/07/31 06:13:44;;;;;;;7.72;4.03;;;19.60;99.90;;;;;;5035360;28;20026;-73
2022/07/31 06:16:13;;;;;;;11.52;3.42;;;19.60;99.90;;;;;;5035588;28;20495;-73
2022/07/31 06:18:39;;;;;;;9.10;4.15;;;19.60;99.90;;;;;;5035289;28;20030;-73
2022/07/31 06:21:05;;;;;;;8.75;4.75;;;19.70;99.90;;;;;;5034115;28;20032;-74
2022/07/31 06:23:30;;;;;;;8.98;4.63;;;19.60;99.90;;;;;;5035378;28;20064;-73
2022/07/31 06:25:58;;;;;;;13.40;5.05;;;19.80;99.90;;;;;;5035459;28;20037;-73
2022/07/31 06:28:24;;;;;;;10.98;5.30;;;19.80;99.90;;;;;;5034094;28;20025;-75
2022/07/31 06:30:49;;;;;;;8.55;3.92;;;19.90;99.90;;;;;;5035422;28;20371;-74
2022/07/31 06:33:15;;;;;;;9.98;4.57;;;20.00;99.90;;;;;;5035684;28;20022;-72
2022/07/31 06:35:40;;;;;;;11.35;5.38;;;20.00;99.90;;;;;;5035898;28;20100;-73
2022/07/31 06:38:06;;;;;;;8.98;4.85;;;20.10;99.90;;;;;;5035783;28;20112;-73
2022/07/31 06:40:31;;;;;;;11.23;4.85;;;20.10;99.90;;;;;;5035351;28;20075;-73
2022/07/31 06:42:57;;;;;;;11.32;3.92;;;20.10;99.90;;;;;;5035483;28;20029;-73
2022/07/31 06:45:23;;;;;;;11.30;4.97;;;20.20;99.90;;;;;;5035074;28;20025;-73
2022/07/31 06:47:48;;;;;;;11.05;5.18;;;20.20;99.90;;;;;;5035345;28;20544;-73
2022/07/31 06:50:14;;;;;;;8.73;4.57;;;20.10;99.90;;;;;;5035058;28;20057;-73
2022/07/31 06:52:40;;;;;;;13.73;5.53;;;20.20;99.90;;;;;;5035061;28;20009;-73
2022/07/31 06:55:06;;;;;;;11.05;4.72;;;20.20;99.90;;;;;;5033624;28;20095;-73
2022/07/31 06:57:32;;;;;;;13.52;5.25;;;20.20;99.90;;;;;;5034778;28;20429;-73
2022/07/31 06:59:58;;;;;;;15.40;5.95;;;20.30;99.90;;;;;;5034600;28;20025;-73
2022/07/31 07:02:24;;;;;;;15.25;6.18;;;20.40;99.90;;;;;;5034705;28;20097;-73
2022/07/31 07:04:49;;;;;;;10.88;5.00;;;20.50;99.90;;;;;;5035339;28;20029;-73
2022/07/31 07:07:15;;;;;;;9.43;5.25;;;20.60;99.90;;;;;;5034670;28;20029;-74
2022/07/31 07:09:41;;;;;;;10.65;5.30;;;20.80;99.90;;;;;;5072813;22;20059;-73
2022/07/31 07:12:07;;;;;;;15.82;6.65;;;20.70;99.90;;;;;;5093322;28;20020;-73
2022/07/31 07:14:32;;;;;;;13.48;6.53;;;20.80;99.90;;;;;;5094070;28;20025;-74
2022/07/31 07:17:00;;;;;;;17.38;6.82;;;20.80;99.90;;;;;;5092497;28;20381;-73
2022/07/31 07:19:26;;;;;;;16.17;6.78;;;20.90;99.90;;;;;;5092987;28;20020;-73
2022/07/31 07:21:51;;;;;;;16.13;6.93;;;20.80;99.90;;;;;;5094252;28;20062;-73
2022/07/31 07:24:17;;;;;;;16.23;7.28;;;20.90;99.90;;;;;;5092948;28;20097;-74
2022/07/31 07:26:42;;;;;;;17.65;7.22;;;20.80;99.90;;;;;;5094378;28;20453;-75
2022/07/31 07:29:09;;;;;;;15.48;7.43;;;21.00;99.90;;;;;;5094116;28;20091;-75
2022/07/31 07:31:34;;;;;;;15.50;6.45;;;21.00;99.90;;;;;;5092798;28;20024;-74
2022/07/31 07:34:01;;;;;;;22.63;7.38;;;21.10;99.90;;;;;;5094076;28;20027;-73
2022/07/31 07:36:27;;;;;;;16.45;7.57;;;21.20;99.90;;;;;;5094046;28;20020;-73
2022/07/31 07:38:53;;;;;;;17.30;7.28;;;21.30;99.90;;;;;;5092620;28;20023;-74
2022/07/31 07:41:19;;;;;;;16.88;7.25;;;21.30;99.90;;;;;;5093947;28;20051;-73
2022/07/31 07:43:44;;;;;;;18.80;8.00;;;21.20;99.90;;;;;;5093850;28;20032;-77
2022/07/31 07:46:10;;;;;;;20.35;7.68;;;21.20;99.90;;;;;;5093864;28;20412;-74
2022/07/31 07:48:35;;;;;;;14.98;7.05;;;21.20;99.90;;;;;;5094318;28;20020;-73
2022/07/31 07:51:01;;;;;;;16.05;7.78;;;21.00;99.90;;;;;;5093571;28;20039;-75
2022/07/31 07:53:26;;;;;;;18.45;7.65;;;21.00;99.90;;;;;;5093648;28;20046;-74
2022/07/31 07:55:52;;;;;;;15.75;7.38;;;20.80;99.90;;;;;;5092367;28;20074;-74
2022/07/31 07:58:18;;;;;;;15.48;6.85;;;20.70;99.90;;;;;;5092446;28;20078;-74
2022/07/31 08:00:44;;;;;;;14.73;7.25;;;20.60;99.90;;;;;;5093803;28;20016;-74
2022/07/31 08:03:09;;;;;;;18.98;7.65;;;20.50;99.90;;;;;;5093523;28;20016;-74
2022/07/31 08:05:35;;;;;;;17.02;8.52;;;20.60;99.90;;;;;;5093387;28;20078;-74
2022/07/31 08:08:00;;;;;;;15.18;7.15;;;20.60;99.90;;;;;;5093467;28;20016;-73
2022/07/31 08:10:26;;;;;;;23.00;8.88;;;20.70;99.90;;;;;;5093287;28;20063;-74
2022/07/31 08:12:53;;;;;;;16.08;7.40;;;20.70;99.90;;;;;;5093477;28;20418;-74
2022/07/31 08:15:19;;;;;;;20.08;8.00;;;20.60;99.90;;;;;;5093492;28;20016;-74
2022/07/31 08:17:44;;;;;;;16.08;8.02;;;20.60;99.90;;;;;;5092185;28;20024;-74
2022/07/31 08:20:10;;;;;;;16.77;7.57;;;20.60;99.90;;;;;;5093166;28;20024;-74
2022/07/31 08:22:36;;;;;;;18.95;8.68;;;20.50;99.90;;;;;;5093367;28;20024;-74
2022/07/31 08:25:02;;;;;;;20.80;8.70;;;20.50;99.90;;;;;;5093439;28;20013;-74
2022/07/31 08:27:27;;;;;;;23.02;8.75;;;20.40;99.90;;;;;;5095174;28;20028;-74
2022/07/31 08:29:59;;;;;;;24.38;9.80;;;20.40;99.90;;;;;;5097448;28;20027;-74
2022/07/31 08:32:25;;;;;;;22.35;8.95;;;20.30;99.90;;;;;;5096011;28;20016;-74
2022/07/31 08:34:52;;;;;;;17.98;8.65;;;20.40;99.90;;;;;;5097229;28;20444;-74
2022/07/31 08:37:18;;;;;;;20.30;9.27;;;20.40;99.90;;;;;;5096825;28;20423;-74
2022/07/31 08:39:45;;;;;;;22.13;9.27;;;20.50;99.90;;;;;;5097516;28;20052;-74
2022/07/31 08:42:11;;;;;;;15.85;8.65;;;20.60;99.90;;;;;;5097395;28;20012;-74
2022/07/31 08:44:41;;;;;;;16.75;8.70;;;20.70;99.90;;;;;;5097273;28;20070;-74
2022/07/31 08:47:11;;;;;;;18.65;8.77;;;20.90;99.90;;;;;;5096331;28;20031;-75
2022/07/31 08:49:48;;;;;;;20.30;9.25;;;21.10;99.90;;;;;;5097330;28;20032;-74
2022/07/31 08:52:19;;;;;;;18.55;9.45;;;21.20;99.90;;;;;;5097293;28;20023;-74
2022/07/31 08:54:46;;;;;;;20.73;10.30;;;21.40;99.90;;;;;;5097398;28;20094;-74
2022/07/31 08:57:12;;;;;;;19.13;9.23;;;21.50;99.90;;;;;;5097348;28;20023;-74
2022/07/31 08:59:41;;;;;;;15.85;8.10;;;21.60;99.90;;;;;;5097045;28;20036;-74
2022/07/31 09:02:11;;;;;;;18.05;8.52;;;21.70;99.90;;;;;;5095644;28;20161;-74
2022/07/31 09:04:37;;;;;;;19.20;9.75;;;21.70;99.90;;;;;;5097266;28;20035;-74
2022/07/31 09:07:03;;;;;;;18.52;9.88;;;21.70;99.90;;;;;;5095731;28;20024;-74
2022/07/31 09:09:30;;;;;;;18.38;8.60;;;21.70;99.90;;;;;;5096670;28;20040;-74
2022/07/31 09:11:56;;;;;;;18.58;9.27;;;21.80;99.90;;;;;;5095543;28;20020;-74
2022/07/31 09:14:29;;;;;;;21.08;10.15;;;21.70;99.90;;;;;;5095580;28;20016;-74
2022/07/31 09:16:56;;;;;;;20.27;10.13;;;21.70;99.90;;;;;;5096764;28;20012;-74
2022/07/31 09:19:23;;;;;;;21.55;10.10;;;21.50;99.90;;;;;;5096803;28;20016;-75
2022/07/31 09:21:50;;;;;;;20.73;10.18;;;21.50;99.90;;;;;;5096708;28;20353;-74
2022/07/31 09:24:28;;;;;;;18.27;9.95;;;21.40;99.90;;;;;;5095409;28;20012;-74
2022/07/31 09:27:16;;;;;;;18.95;9.55;;;21.20;99.90;;;;;;5096845;28;20093;-74
2022/07/31 09:29:43;;;;;;;20.70;11.27;;;21.10;99.90;;;;;;5096486;28;20097;-74
2022/07/31 09:32:13;;;;;;;21.10;10.43;;;21.00;99.90;;;;;;5097637;28;20028;-74
2022/07/31 09:34:40;;;;;;;20.35;10.38;;;20.90;99.90;;;;;;5095404;28;20044;-75
2022/07/31 09:37:13;;;;;;;22.77;10.32;;;20.90;99.90;;;;;;5097079;28;20043;-75
2022/07/31 09:39:40;;;;;;;26.60;10.75;;;20.90;99.90;;;;;;5095226;28;20028;-75
2022/07/31 09:42:06;;;;;;;23.02;11.73;;;21.00;99.90;;;;;;5096510;28;20054;-75
2022/07/31 09:44:40;;;;;;;19.27;11.00;;;21.00;99.90;;;;;;5096268;28;20427;-75
2022/07/31 09:47:06;;;;;;;20.10;10.55;;;21.10;99.90;;;;;;5096328;28;20016;-75
2022/07/31 09:49:34;;;;;;;20.73;11.18;;;21.30;99.90;;;;;;5096015;28;20093;-75
2022/07/31 09:51:59;;;;;;;17.55;10.82;;;21.30;99.90;;;;;;5095065;28;20012;-75
2022/07/31 09:54:27;;;;;;;22.33;11.80;;;21.40;99.90;;;;;;5095988;28;20023;-75
2022/07/31 09:56:53;;;;;;;21.90;11.47;;;21.50;99.90;;;;;;5096020;28;20016;-75
2022/07/31 09:59:19;;;;;;;20.48;10.00;;;21.50;99.90;;;;;;5095984;28;20053;-75
2022/07/31 10:01:47;;;;;;;18.35;10.43;;;21.60;99.90;;;;;;5096094;28;20107;-75
2022/07/31 10:04:16;;;;;;;21.00;11.32;;;21.50;99.90;;;;;;5094667;28;20039;-75
2022/07/31 10:06:42;;;;;;;;;;;21.50;99.90;;;;;;5096804;28;20030;-75
2022/07/31 10:09:08;;;;;;;21.23;11.02;;;21.50;99.90;;;;;;5095683;28;20368;-75
2022/07/31 10:11:36;;;;;;;18.20;10.13;;;21.50;99.90;;;;;;5096405;28;20035;-76
2022/07/31 10:14:05;;;;;;;18.15;10.05;;;21.50;99.90;;;;;;5095687;28;20020;-76
2022/07/31 10:16:34;;;;;;;23.95;11.88;;;21.50;99.90;;;;;;5095607;28;20020;-75
2022/07/31 10:19:02;;;;;;;21.80;11.82;;;21.40;99.90;;;;;;5096082;28;20020;-75
2022/07/31 10:21:35;;;;;;;23.00;12.48;;;21.50;99.90;;;;;;5095696;28;20053;-76
2022/07/31 10:24:04;;;;;;;28.40;13.05;;;21.50;99.90;;;;;;5095846;28;20072;-75
2022/07/31 10:26:30;;;;;;;;;;;21.50;99.90;;;;;;5094547;28;20028;-75
2022/07/31 10:28:57;;;;;;;22.45;13.10;;;21.40;99.90;;;;;;5095463;28;20352;-75
2022/07/31 10:31:22;;;;;;;22.70;12.90;;;21.30;99.90;;;;;;5095183;28;20389;-75
2022/07/31 10:33:48;;;;;;;19.23;12.23;;;21.20;99.90;;;;;;5095168;28;20091;-76
2022/07/31 10:36:20;;;;;;;20.95;11.75;;;21.00;99.90;;;;;;5095451;28;20021;-75
2022/07/31 10:39:13;;;;;;;19.88;12.38;;;20.80;99.90;;;;;;5095267;28;20016;-75
2022/07/31 10:41:58;;;;;;;19.73;11.88;;;20.70;99.90;;;;;;5095555;28;20028;-75
2022/07/31 10:44:32;;;;;;;21.33;12.63;;;20.60;99.90;;;;;;5095061;28;20032;-75
2022/07/31 10:46:58;;;;;;;20.88;11.55;;;20.60;99.90;;;;;;5093774;28;20048;-75
2022/07/31 10:49:43;;;;;;;17.50;10.30;;;20.60;99.90;;;;;;5093404;28;20378;-76
2022/07/31 10:52:09;;;;;;;14.07;10.02;;;20.50;99.90;;;;;;5095138;28;20028;-75
2022/07/31 10:54:40;;;;;;;19.10;10.75;;;20.50;99.90;;;;;;5093674;28;20024;-75
2022/07/31 10:57:05;;;;;;;17.95;10.15;;;20.50;99.90;;;;;;5094915;28;20012;-75
2022/07/31 10:59:31;;;;;;;17.15;10.85;;;20.60;99.90;;;;;;5094808;28;20514;-75
2022/07/31 11:01:57;;;;;;;15.32;9.65;;;20.60;99.90;;;;;;5094686;28;20024;-75
2022/07/31 11:04:31;;;;;;;18.20;11.02;;;20.70;99.90;;;;;;5093442;28;20101;-75
2022/07/31 11:06:58;;;;;;;16.95;10.82;;;20.70;99.90;;;;;;5093374;28;20020;-75
2022/07/31 11:09:26;;;;;;;14.32;10.27;;;20.70;99.90;;;;;;5094381;28;20031;-75
2022/07/31 11:11:52;;;;;;;16.58;10.65;;;20.70;99.90;;;;;;5094750;28;20101;-76
2022/07/31 11:14:30;;;;;;;18.60;10.90;;;20.80;99.90;;;;;;5094421;28;20031;-75
2022/07/31 11:16:56;;;;;;;19.80;11.30;;;20.70;99.90;;;;;;5094508;28;20415;-75
2022/07/31 11:19:21;;;;;;;14.65;9.63;;;20.70;99.90;;;;;;5094362;28;20069;-75
2022/07/31 11:21:47;;;;;;;15.15;10.23;;;20.70;99.90;;;;;;5094415;28;20032;-75
2022/07/31 11:24:12;;;;;;;15.95;10.60;;;20.70;99.90;;;;;;5094273;28;20028;-75
2022/07/31 11:26:47;;;;;;;19.27;10.52;;;20.60;99.90;;;;;;5094491;28;20020;-75
2022/07/31 11:29:13;;;;;;;18.45;10.77;;;20.60;99.90;;;;;;5094460;28;20043;-76
2022/07/31 11:31:38;;;;;;;13.70;9.15;;;20.60;99.90;;;;;;5094155;28;20019;-75
2022/07/31 11:34:04;;;;;;;14.60;10.13;;;20.50;99.90;;;;;;5094420;28;20372;-75
2022/07/31 11:36:30;;;;;;;13.23;8.95;;;20.50;99.90;;;;;;5094098;28;20089;-75
2022/07/31 11:38:55;;;;;;;14.25;9.25;;;20.50;99.90;;;;;;5092790;28;20384;-75
2022/07/31 11:41:27;;;;;;;17.33;10.77;;;20.50;99.90;;;;;;5093982;28;20020;-75
2022/07/31 11:43:53;;;;;;;20.20;10.10;;;20.50;99.90;;;;;;5094068;28;20066;-75
2022/07/31 11:46:27;;;;;;;16.77;8.75;;;20.60;99.90;;;;;;5093868;28;20476;-75
2022/07/31 11:48:54;;;;;;;14.00;8.00;;;20.70;99.90;;;;;;5093827;28;20079;-75
2022/07/31 11:51:20;;;;;;;13.15;7.35;;;20.90;99.90;;;;;;5094244;28;20035;-75
2022/07/31 11:53:47;;;;;;;10.50;6.20;;;21.20;99.90;;;;;;5094405;28;20414;-74
2022/07/31 11:56:15;;;;;;;14.45;6.95;;;21.40;99.90;;;;;;5092545;28;20497;-74
2022/07/31 11:58:47;;;;;;;12.68;5.47;;;21.50;99.90;;;;;;5093670;28;20016;-74
2022/07/31 12:01:12;;;;;;;8.85;5.93;;;21.60;99.90;;;;;;5093250;28;20024;-74
2022/07/31 12:03:38;;;;;;;11.88;5.75;;;21.60;99.90;;;;;;5093696;28;20028;-74
2022/07/31 12:06:06;;;;;;;14.73;6.07;;;21.50;99.90;;;;;;5093566;28;20054;-74
2022/07/31 12:08:33;;;;;;;8.32;5.25;;;21.40;99.90;;;;;;5092331;28;20027;-75
2022/07/31 12:11:01;;;;;;;11.65;5.35;;;21.30;99.90;;;;;;5093475;28;20065;-74
2022/07/31 12:13:28;;;;;;;10.83;5.00;;;21.20;99.90;;;;;;5093776;28;20016;-74
2022/07/31 12:16:05;;;;;;;8.82;4.93;;;21.20;99.90;;;;;;5094049;28;20501;-74
2022/07/31 12:18:43;;;;;;;7.45;4.00;;;21.10;99.90;;;;;;5094052;28;20149;-74
2022/07/31 12:21:09;;;;;;;11.93;6.07;;;21.10;99.90;;;;;;5092682;28;20039;-74
2022/07/31 12:23:43;;;;;;;10.55;5.03;;;21.10;99.90;;;;;;5093399;28;20024;-74
2022/07/31 12:26:21;;;;;;;9.90;5.35;;;21.10;99.90;;;;;;5093424;28;20024;-74
2022/07/31 12:28:57;;;;;;;7.05;4.68;;;21.20;99.90;;;;;;5092162;28;20073;-74
2022/07/31 12:31:23;;;;;;;9.80;4.55;;;21.40;99.90;;;;;;5092025;28;20028;-74
2022/07/31 12:33:48;;;;;;;6.65;4.18;;;21.60;99.90;;;;;;5092086;28;20062;-74
2022/07/31 12:36:15;;;;;;;7.78;4.28;;;21.70;99.90;;;;;;5093362;28;20436;-74
2022/07/31 12:38:41;;;;;;;7.82;4.82;;;21.80;99.90;;;;;;5093635;28;20031;-74
2022/07/31 12:41:07;;;;;;;13.13;4.05;;;21.80;99.90;;;;;;5093139;28;20051;-74